sensor_id;sensor_type;location;lat;lon;timestamp;P1;durP1;ratioP1;P2;durP2;ratioP2
69410;SDS011;56604;48.652;9.194;2023-08-21T00:02:21;13.30;;;7.63;;
69410;SDS011;56604;48.652;9.194;2023-08-21T00:04:46;17.00;;;7.33;;
69410;SDS011;56604;48.652;9.194;2023-08-21T00:07:13;17.50;;;5.83;;
69410;SDS011;56604;48.652;9.194;2023-08-21T00:09:38;11.43;;;7.50;;
69410;SDS011;56604;48.652;9.194;2023-08-21T00:12:04;7.50;;;6.40;;
69410;SDS011;56604;48.652;9.194;2023-08-21T00:14:29;8.67;;;6.90;;
69410;SDS011;56604;48.652;9.194;2023-08-21T00:16:55;8.33;;;6.93;;
69410;SDS011;56604;48.652;9.194;2023-08-21T00:19:20;7.37;;;6.67;;
69410;SDS011;56604;48.652;9.194;2023-08-21T00:21:47;14.47;;;7.30;;
69410;SDS011;56604;48.652;9.194;2023-08-21T00:24:12;8.60;;;7.20;;
69410;SDS011;56604;48.652;9.194;2023-08-21T00:26:38;13.03;;;7.10;;
69410;SDS011;56604;48.652;9.194;2023-08-21T00:29:03;9.87;;;6.93;;
69410;SDS011;56604;48.652;9.194;2023-08-21T00:31:29;7.43;;;6.63;;
69410;SDS011;56604;48.652;9.194;2023-08-21T00:33:55;10.43;;;7.60;;
69410;SDS011;56604;48.652;9.194;2023-08-21T00:36:20;11.63;;;6.93;;
69410;SDS011;56604;48.652;9.194;2023-08-21T00:38:45;23.43;;;6.53;;
69410;SDS011;56604;48.652;9.194;2023-08-21T00:41:11;8.50;;;6.80;;
69410;SDS011;56604;48.652;9.194;2023-08-21T00:43:37;8.87;;;7.13;;
69410;SDS011;56604;48.652;9.194;2023-08-21T00:46:02;9.87;;;7.87;;
69410;SDS011;56604;48.652;9.194;2023-08-21T00:48:28;10.93;;;6.73;;
69410;SDS011;56604;48.652;9.194;2023-08-21T00:50:53;10.67;;;7.20;;
69410;SDS011;56604;48.652;9.194;2023-08-21T00:53:19;10.50;;;8.20;;
69410;SDS011;56604;48.652;9.194;2023-08-21T00:55:44;8.97;;;6.80;;
69410;SDS011;56604;48.652;9.194;2023-08-21T00:58:10;9.63;;;6.93;;
69410;SDS011;56604;48.652;9.194;2023-08-21T01:00:37;15.93;;;6.57;;
69410;SDS011;56604;48.652;9.194;2023-08-21T01:03:05;8.40;;;7.03;;
69410;SDS011;56604;48.652;9.194;2023-08-21T01:05:30;11.03;;;7.57;;
69410;SDS011;56604;48.652;9.194;2023-08-21T01:07:57;10.63;;;7.30;;
69410;SDS011;56604;48.652;9.194;2023-08-21T01:16:18;8.03;;;6.60;;
69410;SDS011;56604;48.652;9.194;2023-08-21T01:18:46;9.10;;;7.10;;
69410;SDS011;56604;48.652;9.194;2023-08-21T01:21:13;8.60;;;7.10;;
69410;SDS011;56604;48.652;9.194;2023-08-21T01:23:40;10.80;;;6.37;;
69410;SDS011;56604;48.652;9.194;2023-08-21T01:26:07;9.93;;;7.20;;
69410;SDS011;56604;48.652;9.194;2023-08-21T01:28:32;15.73;;;7.33;;
69410;SDS011;56604;48.652;9.194;2023-08-21T01:31:21;9.23;;;7.10;;
69410;SDS011;56604;48.652;9.194;2023-08-21T01:33:54;9.10;;;6.20;;
69410;SDS011;56604;48.652;9.194;2023-08-21T01:36:24;9.30;;;6.60;;
69410;SDS011;56604;48.652;9.194;2023-08-21T01:38:50;9.27;;;6.83;;
69410;SDS011;56604;48.652;9.194;2023-08-21T01:41:16;13.60;;;6.83;;
69410;SDS011;56604;48.652;9.194;2023-08-21T01:43:42;8.90;;;7.30;;
69410;SDS011;56604;48.652;9.194;2023-08-21T01:46:07;13.00;;;6.90;;
69410;SDS011;56604;48.652;9.194;2023-08-21T01:48:32;10.63;;;7.13;;
69410;SDS011;56604;48.652;9.194;2023-08-21T01:51:00;19.40;;;8.00;;
69410;SDS011;56604;48.652;9.194;2023-08-21T01:53:26;6.70;;;6.10;;
69410;SDS011;56604;48.652;9.194;2023-08-21T01:55:52;8.20;;;7.10;;
69410;SDS011;56604;48.652;9.194;2023-08-21T01:58:17;10.33;;;6.90;;
69410;SDS011;56604;48.652;9.194;2023-08-21T02:00:46;8.17;;;7.37;;
69410;SDS011;56604;48.652;9.194;2023-08-21T02:03:12;10.03;;;8.00;;
69410;SDS011;56604;48.652;9.194;2023-08-21T02:05:38;19.23;;;7.90;;
69410;SDS011;56604;48.652;9.194;2023-08-21T02:08:05;11.43;;;7.40;;
69410;SDS011;56604;48.652;9.194;2023-08-21T02:10:31;8.83;;;7.60;;
69410;SDS011;56604;48.652;9.194;2023-08-21T02:12:56;8.57;;;7.23;;
69410;SDS011;56604;48.652;9.194;2023-08-21T02:15:22;9.23;;;7.63;;
69410;SDS011;56604;48.652;9.194;2023-08-21T02:17:48;9.73;;;7.00;;
69410;SDS011;56604;48.652;9.194;2023-08-21T02:20:14;10.80;;;7.67;;
69410;SDS011;56604;48.652;9.194;2023-08-21T02:22:40;13.63;;;6.70;;
69410;SDS011;56604;48.652;9.194;2023-08-21T02:25:05;7.20;;;6.40;;
69410;SDS011;56604;48.652;9.194;2023-08-21T02:27:31;10.37;;;7.17;;
69410;SDS011;56604;48.652;9.194;2023-08-21T02:29:56;7.83;;;6.67;;
69410;SDS011;56604;48.652;9.194;2023-08-21T02:32:21;8.73;;;7.60;;
69410;SDS011;56604;48.652;9.194;2023-08-21T02:34:47;12.37;;;7.43;;
69410;SDS011;56604;48.652;9.194;2023-08-21T02:37:12;8.33;;;7.53;;
69410;SDS011;56604;48.652;9.194;2023-08-21T02:39:38;13.40;;;8.40;;
69410;SDS011;56604;48.652;9.194;2023-08-21T02:42:04;8.63;;;7.73;;
69410;SDS011;56604;48.652;9.194;2023-08-21T02:44:29;11.33;;;7.53;;
69410;SDS011;56604;48.652;9.194;2023-08-21T02:46:55;8.40;;;7.20;;
69410;SDS011;56604;48.652;9.194;2023-08-21T02:49:20;13.77;;;7.73;;
69410;SDS011;56604;48.652;9.194;2023-08-21T02:51:46;13.67;;;7.57;;
69410;SDS011;56604;48.652;9.194;2023-08-21T02:54:12;10.37;;;8.00;;
69410;SDS011;56604;48.652;9.194;2023-08-21T02:56:37;7.77;;;7.07;;
69410;SDS011;56604;48.652;9.194;2023-08-21T02:59:02;11.10;;;7.87;;
69410;SDS011;56604;48.652;9.194;2023-08-21T03:01:28;14.20;;;7.30;;
69410;SDS011;56604;48.652;9.194;2023-08-21T03:03:53;16.67;;;8.07;;
69410;SDS011;56604;48.652;9.194;2023-08-21T03:06:18;8.80;;;7.43;;
69410;SDS011;56604;48.652;9.194;2023-08-21T03:08:44;10.70;;;6.93;;
69410;SDS011;56604;48.652;9.194;2023-08-21T03:11:09;11.80;;;7.77;;
69410;SDS011;56604;48.652;9.194;2023-08-21T03:13:35;9.10;;;7.30;;
69410;SDS011;56604;48.652;9.194;2023-08-21T03:16:00;10.30;;;7.63;;
69410;SDS011;56604;48.652;9.194;2023-08-21T03:18:29;12.33;;;7.10;;
69410;SDS011;56604;48.652;9.194;2023-08-21T03:20:56;11.27;;;8.57;;
69410;SDS011;56604;48.652;9.194;2023-08-21T03:23:21;9.07;;;7.70;;
69410;SDS011;56604;48.652;9.194;2023-08-21T03:25:47;9.87;;;8.40;;
69410;SDS011;56604;48.652;9.194;2023-08-21T03:28:12;10.40;;;8.20;;
69410;SDS011;56604;48.652;9.194;2023-08-21T03:30:40;12.73;;;8.57;;
69410;SDS011;56604;48.652;9.194;2023-08-21T03:33:06;14.80;;;8.03;;
69410;SDS011;56604;48.652;9.194;2023-08-21T03:35:33;13.70;;;8.90;;
69410;SDS011;56604;48.652;9.194;2023-08-21T03:37:58;12.30;;;8.57;;
69410;SDS011;56604;48.652;9.194;2023-08-21T03:40:23;9.73;;;8.40;;
69410;SDS011;56604;48.652;9.194;2023-08-21T03:42:48;13.20;;;8.77;;
69410;SDS011;56604;48.652;9.194;2023-08-21T03:45:14;10.03;;;8.83;;
69410;SDS011;56604;48.652;9.194;2023-08-21T03:47:39;13.90;;;8.90;;
69410;SDS011;56604;48.652;9.194;2023-08-21T03:50:05;10.47;;;9.30;;
69410;SDS011;56604;48.652;9.194;2023-08-21T03:52:30;17.37;;;9.47;;
69410;SDS011;56604;48.652;9.194;2023-08-21T03:54:56;11.80;;;9.40;;
69410;SDS011;56604;48.652;9.194;2023-08-21T03:57:21;10.40;;;9.10;;
69410;SDS011;56604;48.652;9.194;2023-08-21T03:59:46;17.27;;;9.27;;
69410;SDS011;56604;48.652;9.194;2023-08-21T04:02:11;15.97;;;9.97;;
69410;SDS011;56604;48.652;9.194;2023-08-21T04:04:37;13.50;;;9.77;;
69410;SDS011;56604;48.652;9.194;2023-08-21T04:07:02;12.70;;;8.87;;
69410;SDS011;56604;48.652;9.194;2023-08-21T04:09:27;12.67;;;9.90;;
69410;SDS011;56604;48.652;9.194;2023-08-21T04:11:52;15.13;;;9.33;;
69410;SDS011;56604;48.652;9.194;2023-08-21T04:14:18;12.17;;;9.30;;
69410;SDS011;56604;48.652;9.194;2023-08-21T04:16:43;11.20;;;8.63;;
69410;SDS011;56604;48.652;9.194;2023-08-21T04:19:08;13.47;;;9.00;;
69410;SDS011;56604;48.652;9.194;2023-08-21T04:21:34;11.93;;;8.53;;
69410;SDS011;56604;48.652;9.194;2023-08-21T04:23:59;10.20;;;9.10;;
69410;SDS011;56604;48.652;9.194;2023-08-21T04:26:24;21.67;;;9.43;;
69410;SDS011;56604;48.652;9.194;2023-08-21T04:28:50;22.23;;;9.37;;
69410;SDS011;56604;48.652;9.194;2023-08-21T04:31:15;14.50;;;9.77;;
69410;SDS011;56604;48.652;9.194;2023-08-21T04:33:40;16.17;;;9.80;;
69410;SDS011;56604;48.652;9.194;2023-08-21T04:36:06;11.87;;;9.40;;
69410;SDS011;56604;48.652;9.194;2023-08-21T04:38:31;15.40;;;10.10;;
69410;SDS011;56604;48.652;9.194;2023-08-21T04:41:05;13.83;;;9.40;;
69410;SDS011;56604;48.652;9.194;2023-08-21T04:43:31;14.07;;;9.40;;
69410;SDS011;56604;48.652;9.194;2023-08-21T04:45:56;11.83;;;9.57;;
69410;SDS011;56604;48.652;9.194;2023-08-21T04:48:21;14.67;;;9.00;;
69410;SDS011;56604;48.652;9.194;2023-08-21T04:50:47;8.90;;;8.10;;
69410;SDS011;56604;48.652;9.194;2023-08-21T04:53:12;10.27;;;8.37;;
69410;SDS011;56604;48.652;9.194;2023-08-21T04:55:39;12.53;;;8.27;;
69410;SDS011;56604;48.652;9.194;2023-08-21T04:58:05;9.13;;;7.23;;
69410;SDS011;56604;48.652;9.194;2023-08-21T05:00:31;9.60;;;8.60;;
69410;SDS011;56604;48.652;9.194;2023-08-21T05:02:57;12.33;;;8.30;;
69410;SDS011;56604;48.652;9.194;2023-08-21T05:05:22;13.67;;;7.80;;
69410;SDS011;56604;48.652;9.194;2023-08-21T05:07:47;8.37;;;7.47;;
69410;SDS011;56604;48.652;9.194;2023-08-21T05:10:14;8.40;;;7.60;;
69410;SDS011;56604;48.652;9.194;2023-08-21T05:12:40;10.33;;;6.77;;
69410;SDS011;56604;48.652;9.194;2023-08-21T05:15:07;9.10;;;7.13;;
69410;SDS011;56604;48.652;9.194;2023-08-21T05:17:32;7.53;;;6.93;;
69410;SDS011;56604;48.652;9.194;2023-08-21T05:19:57;6.80;;;6.20;;
69410;SDS011;56604;48.652;9.194;2023-08-21T05:22:23;7.50;;;6.50;;
69410;SDS011;56604;48.652;9.194;2023-08-21T05:24:48;7.70;;;6.03;;
69410;SDS011;56604;48.652;9.194;2023-08-21T05:27:13;8.87;;;6.47;;
69410;SDS011;56604;48.652;9.194;2023-08-21T05:29:39;10.23;;;6.60;;
69410;SDS011;56604;48.652;9.194;2023-08-21T05:32:04;7.37;;;6.37;;
69410;SDS011;56604;48.652;9.194;2023-08-21T05:34:30;6.20;;;5.70;;
69410;SDS011;56604;48.652;9.194;2023-08-21T05:36:56;9.63;;;6.37;;
69410;SDS011;56604;48.652;9.194;2023-08-21T05:39:21;9.77;;;6.53;;
69410;SDS011;56604;48.652;9.194;2023-08-21T05:41:46;7.67;;;6.00;;
69410;SDS011;56604;48.652;9.194;2023-08-21T05:44:12;6.43;;;5.83;;
69410;SDS011;56604;48.652;9.194;2023-08-21T05:46:37;12.30;;;5.87;;
69410;SDS011;56604;48.652;9.194;2023-08-21T05:49:03;8.93;;;6.13;;
69410;SDS011;56604;48.652;9.194;2023-08-21T05:51:28;14.07;;;5.57;;
69410;SDS011;56604;48.652;9.194;2023-08-21T05:53:54;7.13;;;6.20;;
69410;SDS011;56604;48.652;9.194;2023-08-21T05:56:19;7.70;;;5.57;;
69410;SDS011;56604;48.652;9.194;2023-08-21T05:58:44;8.07;;;5.55;;
69410;SDS011;56604;48.652;9.194;2023-08-21T06:01:10;5.97;;;5.10;;
69410;SDS011;56604;48.652;9.194;2023-08-21T06:03:36;5.43;;;5.03;;
69410;SDS011;56604;48.652;9.194;2023-08-21T06:06:01;13.48;;;5.50;;
69410;SDS011;56604;48.652;9.194;2023-08-21T06:08:26;7.28;;;5.10;;
69410;SDS011;56604;48.652;9.194;2023-08-21T06:10:52;7.65;;;5.30;;
69410;SDS011;56604;48.652;9.194;2023-08-21T06:13:18;6.50;;;5.60;;
69410;SDS011;56604;48.652;9.194;2023-08-21T06:15:43;7.50;;;5.30;;
69410;SDS011;56604;48.652;9.194;2023-08-21T06:18:10;10.48;;;5.68;;
69410;SDS011;56604;48.652;9.194;2023-08-21T06:20:35;6.38;;;5.43;;
69410;SDS011;56604;48.652;9.194;2023-08-21T06:23:01;7.72;;;4.90;;
69410;SDS011;56604;48.652;9.194;2023-08-21T06:25:26;6.40;;;5.53;;
69410;SDS011;56604;48.652;9.194;2023-08-21T06:27:51;5.75;;;5.22;;
69410;SDS011;56604;48.652;9.194;2023-08-21T06:30:17;5.22;;;4.82;;
69410;SDS011;56604;48.652;9.194;2023-08-21T06:32:43;6.60;;;5.40;;
69410;SDS011;56604;48.652;9.194;2023-08-21T06:35:09;6.95;;;5.20;;
69410;SDS011;56604;48.652;9.194;2023-08-21T06:37:34;7.70;;;5.10;;
69410;SDS011;56604;48.652;9.194;2023-08-21T06:39:59;10.02;;;6.10;;
69410;SDS011;56604;48.652;9.194;2023-08-21T06:42:24;10.65;;;5.25;;
69410;SDS011;56604;48.652;9.194;2023-08-21T06:44:50;7.35;;;6.47;;
69410;SDS011;56604;48.652;9.194;2023-08-21T06:47:15;17.23;;;6.20;;
69410;SDS011;56604;48.652;9.194;2023-08-21T06:49:40;8.82;;;5.40;;
69410;SDS011;56604;48.652;9.194;2023-08-21T06:52:06;6.82;;;5.68;;
69410;SDS011;56604;48.652;9.194;2023-08-21T06:54:31;11.48;;;5.90;;
69410;SDS011;56604;48.652;9.194;2023-08-21T06:56:57;7.50;;;5.90;;
69410;SDS011;56604;48.652;9.194;2023-08-21T06:59:23;5.93;;;5.43;;
69410;SDS011;56604;48.652;9.194;2023-08-21T07:01:48;10.85;;;5.80;;
69410;SDS011;56604;48.652;9.194;2023-08-21T07:04:14;6.72;;;6.03;;
69410;SDS011;56604;48.652;9.194;2023-08-21T07:06:39;8.15;;;5.40;;
69410;SDS011;56604;48.652;9.194;2023-08-21T07:09:04;11.63;;;6.00;;
69410;SDS011;56604;48.652;9.194;2023-08-21T07:11:29;8.93;;;6.32;;
69410;SDS011;56604;48.652;9.194;2023-08-21T07:13:55;7.88;;;6.20;;
69410;SDS011;56604;48.652;9.194;2023-08-21T07:16:20;6.53;;;5.90;;
69410;SDS011;56604;48.652;9.194;2023-08-21T07:18:45;6.70;;;5.60;;
69410;SDS011;56604;48.652;9.194;2023-08-21T07:21:11;5.70;;;5.25;;
69410;SDS011;56604;48.652;9.194;2023-08-21T07:23:37;6.35;;;5.82;;
69410;SDS011;56604;48.652;9.194;2023-08-21T07:26:03;6.38;;;5.63;;
69410;SDS011;56604;48.652;9.194;2023-08-21T07:28:30;9.95;;;5.53;;
69410;SDS011;56604;48.652;9.194;2023-08-21T07:30:55;6.57;;;5.95;;
69410;SDS011;56604;48.652;9.194;2023-08-21T07:33:22;6.20;;;5.60;;
69410;SDS011;56604;48.652;9.194;2023-08-21T07:35:47;10.65;;;5.60;;
69410;SDS011;56604;48.652;9.194;2023-08-21T07:38:22;7.35;;;5.90;;
69410;SDS011;56604;48.652;9.194;2023-08-21T07:40:47;14.80;;;5.40;;
69410;SDS011;56604;48.652;9.194;2023-08-21T07:43:12;8.25;;;5.40;;
69410;SDS011;56604;48.652;9.194;2023-08-21T07:45:39;6.00;;;5.40;;
69410;SDS011;56604;48.652;9.194;2023-08-21T07:48:04;7.13;;;5.65;;
69410;SDS011;56604;48.652;9.194;2023-08-21T07:50:30;12.27;;;6.35;;
69410;SDS011;56604;48.652;9.194;2023-08-21T07:52:55;8.80;;;6.50;;
69410;SDS011;56604;48.652;9.194;2023-08-21T07:55:20;8.05;;;5.88;;
69410;SDS011;56604;48.652;9.194;2023-08-21T07:57:46;8.35;;;5.82;;
69410;SDS011;56604;48.652;9.194;2023-08-21T08:00:11;7.00;;;6.30;;
69410;SDS011;56604;48.652;9.194;2023-08-21T08:02:37;12.65;;;6.65;;
69410;SDS011;56604;48.652;9.194;2023-08-21T08:05:02;9.93;;;6.38;;
69410;SDS011;56604;48.652;9.194;2023-08-21T08:07:28;9.02;;;5.93;;
69410;SDS011;56604;48.652;9.194;2023-08-21T08:09:53;12.20;;;5.85;;
69410;SDS011;56604;48.652;9.194;2023-08-21T08:12:19;8.80;;;6.10;;
69410;SDS011;56604;48.652;9.194;2023-08-21T08:14:44;10.77;;;6.40;;
69410;SDS011;56604;48.652;9.194;2023-08-21T08:17:11;7.38;;;6.47;;
69410;SDS011;56604;48.652;9.194;2023-08-21T08:19:36;8.65;;;6.07;;
69410;SDS011;56604;48.652;9.194;2023-08-21T08:22:02;10.18;;;6.13;;
69410;SDS011;56604;48.652;9.194;2023-08-21T08:24:27;7.82;;;6.40;;
69410;SDS011;56604;48.652;9.194;2023-08-21T08:26:52;7.38;;;6.40;;
69410;SDS011;56604;48.652;9.194;2023-08-21T08:29:18;7.70;;;6.20;;
69410;SDS011;56604;48.652;9.194;2023-08-21T08:31:43;7.43;;;6.60;;
69410;SDS011;56604;48.652;9.194;2023-08-21T08:34:08;8.38;;;6.63;;
69410;SDS011;56604;48.652;9.194;2023-08-21T08:36:34;5.95;;;5.32;;
69410;SDS011;56604;48.652;9.194;2023-08-21T08:39:00;7.32;;;6.68;;
69410;SDS011;56604;48.652;9.194;2023-08-21T08:41:38;9.40;;;6.60;;
69410;SDS011;56604;48.652;9.194;2023-08-21T08:44:21;6.85;;;6.22;;
69410;SDS011;56604;48.652;9.194;2023-08-21T08:46:51;13.05;;;6.30;;
69410;SDS011;56604;48.652;9.194;2023-08-21T08:49:16;11.35;;;6.70;;
69410;SDS011;56604;48.652;9.194;2023-08-21T08:51:42;9.52;;;6.65;;
69410;SDS011;56604;48.652;9.194;2023-08-21T08:54:08;12.98;;;6.47;;
69410;SDS011;56604;48.652;9.194;2023-08-21T08:56:34;8.75;;;7.00;;
69410;SDS011;56604;48.652;9.194;2023-08-21T08:58:59;22.63;;;6.75;;
69410;SDS011;56604;48.652;9.194;2023-08-21T09:01:24;9.07;;;6.22;;
69410;SDS011;56604;48.652;9.194;2023-08-21T09:03:51;12.60;;;6.30;;
69410;SDS011;56604;48.652;9.194;2023-08-21T09:06:16;16.60;;;5.97;;
69410;SDS011;56604;48.652;9.194;2023-08-21T09:08:54;8.85;;;5.65;;
69410;SDS011;56604;48.652;9.194;2023-08-21T09:11:21;10.45;;;5.68;;
69410;SDS011;56604;48.652;9.194;2023-08-21T09:13:49;7.82;;;6.15;;
69410;SDS011;56604;48.652;9.194;2023-08-21T09:16:16;6.55;;;5.75;;
69410;SDS011;56604;48.652;9.194;2023-08-21T09:18:52;16.25;;;6.57;;
69410;SDS011;56604;48.652;9.194;2023-08-21T09:21:22;11.93;;;6.55;;
69410;SDS011;56604;48.652;9.194;2023-08-21T09:23:50;14.10;;;6.65;;
69410;SDS011;56604;48.652;9.194;2023-08-21T09:26:22;8.55;;;6.53;;
69410;SDS011;56604;48.652;9.194;2023-08-21T09:28:49;9.82;;;6.93;;
69410;SDS011;56604;48.652;9.194;2023-08-21T09:31:16;11.68;;;6.38;;
69410;SDS011;56604;48.652;9.194;2023-08-21T09:33:42;7.97;;;5.75;;
69410;SDS011;56604;48.652;9.194;2023-08-21T09:36:10;8.77;;;6.10;;
69410;SDS011;56604;48.652;9.194;2023-08-21T09:38:38;10.48;;;6.55;;
69410;SDS011;56604;48.652;9.194;2023-08-21T09:41:05;12.50;;;7.10;;
69410;SDS011;56604;48.652;9.194;2023-08-21T09:43:32;13.45;;;6.10;;
69410;SDS011;56604;48.652;9.194;2023-08-21T09:46:08;10.35;;;6.70;;
69410;SDS011;56604;48.652;9.194;2023-08-21T09:48:33;20.85;;;5.90;;
69410;SDS011;56604;48.652;9.194;2023-08-21T09:51:00;6.10;;;5.57;;
69410;SDS011;56604;48.652;9.194;2023-08-21T09:53:29;12.77;;;6.20;;
69410;SDS011;56604;48.652;9.194;2023-08-21T09:55:54;17.83;;;5.70;;
69410;SDS011;56604;48.652;9.194;2023-08-21T09:58:21;8.57;;;5.00;;
69410;SDS011;56604;48.652;9.194;2023-08-21T10:00:47;10.38;;;5.38;;
69410;SDS011;56604;48.652;9.194;2023-08-21T10:03:15;9.43;;;5.35;;
69410;SDS011;56604;48.652;9.194;2023-08-21T10:05:44;8.40;;;5.63;;
69410;SDS011;56604;48.652;9.194;2023-08-21T10:08:12;12.18;;;8.30;;
69410;SDS011;56604;48.652;9.194;2023-08-21T10:10:40;5.97;;;5.13;;
69410;SDS011;56604;48.652;9.194;2023-08-21T10:13:07;6.70;;;5.13;;
69410;SDS011;56604;48.652;9.194;2023-08-21T10:15:33;8.38;;;5.93;;
69410;SDS011;56604;48.652;9.194;2023-08-21T10:21:12;5.93;;;5.30;;
69410;SDS011;56604;48.652;9.194;2023-08-21T10:23:41;7.18;;;5.28;;
69410;SDS011;56604;48.652;9.194;2023-08-21T10:26:10;6.63;;;5.93;;
69410;SDS011;56604;48.652;9.194;2023-08-21T10:28:42;8.60;;;5.80;;
69410;SDS011;56604;48.652;9.194;2023-08-21T10:34:07;11.27;;;6.33;;
69410;SDS011;56604;48.652;9.194;2023-08-21T10:39:21;8.17;;;6.00;;
69410;SDS011;56604;48.652;9.194;2023-08-21T10:42:01;14.33;;;6.00;;
69410;SDS011;56604;48.652;9.194;2023-08-21T10:49:52;8.00;;;6.50;;
69410;SDS011;56604;48.652;9.194;2023-08-21T10:52:23;11.37;;;6.90;;
69410;SDS011;56604;48.652;9.194;2023-08-21T10:54:59;7.00;;;5.80;;
69410;SDS011;56604;48.652;9.194;2023-08-21T10:57:26;9.30;;;5.90;;
69410;SDS011;56604;48.652;9.194;2023-08-21T10:59:55;8.90;;;6.43;;
69410;SDS011;56604;48.652;9.194;2023-08-21T11:02:29;8.80;;;5.80;;
69410;SDS011;56604;48.652;9.194;2023-08-21T11:04:55;10.77;;;7.03;;
69410;SDS011;56604;48.652;9.194;2023-08-21T11:07:22;8.10;;;6.57;;
69410;SDS011;56604;48.652;9.194;2023-08-21T11:09:48;18.23;;;7.60;;
69410;SDS011;56604;48.652;9.194;2023-08-21T11:12:17;8.03;;;6.37;;
69410;SDS011;56604;48.652;9.194;2023-08-21T11:14:45;13.10;;;7.37;;
69410;SDS011;56604;48.652;9.194;2023-08-21T11:17:10;10.30;;;6.50;;
69410;SDS011;56604;48.652;9.194;2023-08-21T11:19:37;8.23;;;6.60;;
69410;SDS011;56604;48.652;9.194;2023-08-21T11:22:06;8.20;;;6.80;;
69410;SDS011;56604;48.652;9.194;2023-08-21T11:27:13;12.27;;;7.20;;
69410;SDS011;56604;48.652;9.194;2023-08-21T11:30:03;13.13;;;7.17;;
69410;SDS011;56604;48.652;9.194;2023-08-21T11:32:29;10.93;;;7.00;;
69410;SDS011;56604;48.652;9.194;2023-08-21T11:34:55;10.50;;;6.63;;
69410;SDS011;56604;48.652;9.194;2023-08-21T11:37:30;21.43;;;6.73;;
69410;SDS011;56604;48.652;9.194;2023-08-21T11:39:59;10.80;;;6.97;;
69410;SDS011;56604;48.652;9.194;2023-08-21T11:42:31;11.33;;;6.53;;
69410;SDS011;56604;48.652;9.194;2023-08-21T11:44:58;11.87;;;6.70;;
69410;SDS011;56604;48.652;9.194;2023-08-21T11:47:29;9.97;;;6.80;;
69410;SDS011;56604;48.652;9.194;2023-08-21T11:49:55;9.00;;;7.07;;
69410;SDS011;56604;48.652;9.194;2023-08-21T11:52:22;8.63;;;6.83;;
69410;SDS011;56604;48.652;9.194;2023-08-21T11:54:51;13.13;;;6.97;;
69410;SDS011;56604;48.652;9.194;2023-08-21T11:57:18;7.13;;;6.53;;
69410;SDS011;56604;48.652;9.194;2023-08-21T11:59:55;7.70;;;6.57;;
69410;SDS011;56604;48.652;9.194;2023-08-21T12:04:51;16.13;;;6.83;;
69410;SDS011;56604;48.652;9.194;2023-08-21T12:07:17;10.53;;;6.93;;
69410;SDS011;56604;48.652;9.194;2023-08-21T12:09:45;10.10;;;6.77;;
69410;SDS011;56604;48.652;9.194;2023-08-21T12:12:12;13.77;;;7.20;;
69410;SDS011;56604;48.652;9.194;2023-08-21T12:14:38;19.67;;;7.33;;
69410;SDS011;56604;48.652;9.194;2023-08-21T12:17:04;12.20;;;7.20;;
69410;SDS011;56604;48.652;9.194;2023-08-21T12:19:31;12.50;;;7.30;;
69410;SDS011;56604;48.652;9.194;2023-08-21T12:21:56;10.70;;;6.80;;
69410;SDS011;56604;48.652;9.194;2023-08-21T12:24:24;12.53;;;6.93;;
69410;SDS011;56604;48.652;9.194;2023-08-21T12:26:50;13.27;;;7.10;;
69410;SDS011;56604;48.652;9.194;2023-08-21T12:29:16;10.23;;;6.97;;
69410;SDS011;56604;48.652;9.194;2023-08-21T12:31:42;10.03;;;7.43;;
69410;SDS011;56604;48.652;9.194;2023-08-21T12:34:07;15.77;;;7.40;;
69410;SDS011;56604;48.652;9.194;2023-08-21T12:36:35;9.43;;;7.00;;
69410;SDS011;56604;48.652;9.194;2023-08-21T12:39:04;7.77;;;6.93;;
69410;SDS011;56604;48.652;9.194;2023-08-21T12:41:31;7.57;;;6.70;;
69410;SDS011;56604;48.652;9.194;2023-08-21T12:43:58;8.07;;;6.70;;
69410;SDS011;56604;48.652;9.194;2023-08-21T12:46:27;9.50;;;6.63;;
69410;SDS011;56604;48.652;9.194;2023-08-21T12:48:54;7.97;;;7.13;;
69410;SDS011;56604;48.652;9.194;2023-08-21T12:51:20;7.40;;;6.70;;
69410;SDS011;56604;48.652;9.194;2023-08-21T12:53:45;10.10;;;7.80;;
69410;SDS011;56604;48.652;9.194;2023-08-21T12:56:10;13.33;;;7.57;;
69410;SDS011;56604;48.652;9.194;2023-08-21T12:58:36;8.40;;;7.10;;
69410;SDS011;56604;48.652;9.194;2023-08-21T13:01:01;9.87;;;6.43;;
69410;SDS011;56604;48.652;9.194;2023-08-21T13:03:28;11.93;;;6.87;;
69410;SDS011;56604;48.652;9.194;2023-08-21T13:05:54;11.30;;;6.10;;
69410;SDS011;56604;48.652;9.194;2023-08-21T13:08:19;7.80;;;6.50;;
69410;SDS011;56604;48.652;9.194;2023-08-21T13:10:44;11.00;;;7.17;;
69410;SDS011;56604;48.652;9.194;2023-08-21T13:13:10;11.07;;;6.33;;
69410;SDS011;56604;48.652;9.194;2023-08-21T13:15:35;8.60;;;6.33;;
69410;SDS011;56604;48.652;9.194;2023-08-21T13:18:01;8.80;;;6.60;;
69410;SDS011;56604;48.652;9.194;2023-08-21T13:20:27;7.07;;;6.37;;
69410;SDS011;56604;48.652;9.194;2023-08-21T13:22:53;12.03;;;6.00;;
69410;SDS011;56604;48.652;9.194;2023-08-21T13:25:18;10.47;;;7.00;;
69410;SDS011;56604;48.652;9.194;2023-08-21T13:27:45;13.87;;;6.73;;
69410;SDS011;56604;48.652;9.194;2023-08-21T13:30:11;6.93;;;6.30;;
69410;SDS011;56604;48.652;9.194;2023-08-21T13:32:37;12.90;;;6.57;;
69410;SDS011;56604;48.652;9.194;2023-08-21T13:35:02;11.30;;;6.97;;
69410;SDS011;56604;48.652;9.194;2023-08-21T13:37:31;7.03;;;6.37;;
69410;SDS011;56604;48.652;9.194;2023-08-21T13:39:57;8.90;;;6.70;;
69410;SDS011;56604;48.652;9.194;2023-08-21T13:42:25;6.80;;;6.20;;
69410;SDS011;56604;48.652;9.194;2023-08-21T13:44:50;20.80;;;6.90;;
69410;SDS011;56604;48.652;9.194;2023-08-21T13:47:16;10.27;;;6.70;;
69410;SDS011;56604;48.652;9.194;2023-08-21T13:49:41;13.23;;;6.87;;
69410;SDS011;56604;48.652;9.194;2023-08-21T13:52:07;6.80;;;5.90;;
69410;SDS011;56604;48.652;9.194;2023-08-21T13:54:32;6.37;;;5.77;;
69410;SDS011;56604;48.652;9.194;2023-08-21T13:56:58;7.00;;;6.00;;
69410;SDS011;56604;48.652;9.194;2023-08-21T13:59:24;7.70;;;6.20;;
69410;SDS011;56604;48.652;9.194;2023-08-21T14:01:50;11.80;;;5.88;;
69410;SDS011;56604;48.652;9.194;2023-08-21T14:04:15;9.10;;;6.00;;
69410;SDS011;56604;48.652;9.194;2023-08-21T14:06:40;12.40;;;6.50;;
69410;SDS011;56604;48.652;9.194;2023-08-21T14:09:06;6.77;;;5.93;;
69410;SDS011;56604;48.652;9.194;2023-08-21T14:11:31;6.47;;;5.80;;
69410;SDS011;56604;48.652;9.194;2023-08-21T14:13:56;8.30;;;5.80;;
69410;SDS011;56604;48.652;9.194;2023-08-21T14:16:22;12.10;;;6.20;;
69410;SDS011;56604;48.652;9.194;2023-08-21T14:18:47;12.37;;;7.00;;
69410;SDS011;56604;48.652;9.194;2023-08-21T14:21:12;13.83;;;7.10;;
69410;SDS011;56604;48.652;9.194;2023-08-21T14:23:38;8.50;;;6.03;;
69410;SDS011;56604;48.652;9.194;2023-08-21T14:26:04;11.70;;;6.80;;
69410;SDS011;56604;48.652;9.194;2023-08-21T14:28:29;7.40;;;6.70;;
69410;SDS011;56604;48.652;9.194;2023-08-21T14:30:55;9.13;;;6.37;;
69410;SDS011;56604;48.652;9.194;2023-08-21T14:33:20;9.53;;;6.90;;
69410;SDS011;56604;48.652;9.194;2023-08-21T14:35:46;11.50;;;7.00;;
69410;SDS011;56604;48.652;9.194;2023-08-21T14:38:11;11.60;;;6.40;;
69410;SDS011;56604;48.652;9.194;2023-08-21T14:40:38;8.27;;;6.33;;
69410;SDS011;56604;48.652;9.194;2023-08-21T14:43:03;10.47;;;6.27;;
69410;SDS011;56604;48.652;9.194;2023-08-21T14:45:28;6.87;;;6.13;;
69410;SDS011;56604;48.652;9.194;2023-08-21T14:47:53;12.33;;;6.60;;
69410;SDS011;56604;48.652;9.194;2023-08-21T14:50:19;11.00;;;6.10;;
69410;SDS011;56604;48.652;9.194;2023-08-21T14:52:44;13.90;;;7.13;;
69410;SDS011;56604;48.652;9.194;2023-08-21T14:55:10;11.53;;;6.70;;
69410;SDS011;56604;48.652;9.194;2023-08-21T14:57:35;9.47;;;6.53;;
69410;SDS011;56604;48.652;9.194;2023-08-21T15:00:00;21.23;;;6.03;;
69410;SDS011;56604;48.652;9.194;2023-08-21T15:02:26;12.27;;;6.30;;